createdAt,value
2023-05-04T00:00:02.440Z,78.09
2023-05-04T00:01:02.121Z,78.92
2023-05-04T00:02:02.135Z,78.30
2023-05-04T00:03:01.997Z,76.97
2023-05-04T00:04:02.318Z,77.27
2023-05-04T00:05:02.292Z,77.78
2023-05-04T00:06:02.224Z,77.37
2023-05-04T00:07:02.225Z,77.89
2023-05-04T00:08:02.506Z,78.54
2023-05-04T00:09:02.272Z,78.64
2023-05-04T00:10:02.251Z,79.77
2023-05-04T00:11:02.589Z,79.26
2023-05-04T00:12:02.439Z,78.75
2023-05-04T00:13:02.887Z,79.05
2023-05-04T00:14:02.583Z,79.67
2023-05-04T00:15:02.492Z,79.16
2023-05-04T00:16:02.466Z,79.61
2023-05-04T00:17:01.856Z,80.43
2023-05-04T00:18:01.965Z,79.57
2023-05-04T00:19:02.349Z,80.12
2023-05-04T00:20:02.501Z,79.50
2023-05-04T00:21:01.992Z,79.50
2023-05-04T00:22:02.680Z,80.12
2023-05-04T00:23:03.125Z,80.84
2023-05-04T00:24:02.704Z,81.25
2023-05-04T00:25:02.596Z,80.53
2023-05-04T00:26:03.093Z,80.74
2023-05-04T00:27:02.961Z,80.12
2023-05-04T00:28:02.855Z,79.71
2023-05-04T00:29:02.642Z,80.98
2023-05-04T00:30:03.376Z,81.70
2023-05-04T00:31:02.528Z,82.63
2023-05-04T00:32:02.223Z,83.04
2023-05-04T00:33:02.719Z,83.04
2023-05-04T00:34:02.445Z,82.63
2023-05-04T00:35:02.346Z,83.14
2023-05-04T00:36:02.614Z,82.83
2023-05-04T00:37:02.405Z,82.63
2023-05-04T00:38:02.299Z,83.04
2023-05-04T00:39:02.434Z,83.04
2023-05-04T00:40:02.604Z,82.42
2023-05-04T00:41:02.570Z,83.25
2023-05-04T00:42:02.879Z,83.04
2023-05-04T00:43:02.867Z,83.25
2023-05-04T00:44:03.182Z,83.04
2023-05-04T00:45:03.283Z,83.65
2023-05-04T00:46:02.985Z,83.18
2023-05-04T00:47:03.335Z,83.07
2023-05-04T00:48:03.219Z,83.90
2023-05-04T00:49:03.035Z,84.21
2023-05-04T00:50:03.181Z,84.31
2023-05-04T00:51:02.836Z,84.42
2023-05-04T00:52:02.534Z,83.59
2023-05-04T00:53:02.790Z,84.31
2023-05-04T00:54:02.229Z,83.80
2023-05-04T00:55:02.860Z,83.18
2023-05-04T00:56:02.468Z,82.25
2023-05-04T00:57:02.282Z,83.59
2023-05-04T00:58:02.009Z,82.87
2023-05-04T00:59:01.958Z,83.39
2023-05-04T01:00:02.102Z,82.87
2023-05-04T01:01:02.161Z,83.70
2023-05-04T01:02:02.743Z,82.97
2023-05-04T01:03:02.701Z,84.21
2023-05-04T01:04:02.942Z,83.59
2023-05-04T01:05:02.495Z,83.49
2023-05-04T01:06:03.028Z,83.59
2023-05-04T01:07:02.401Z,83.07
2023-05-04T01:08:02.597Z,83.59
2023-05-04T01:09:02.683Z,83.42
2023-05-04T01:10:02.705Z,83.32
2023-05-04T01:11:02.482Z,83.22
2023-05-04T01:12:02.098Z,83.94
2023-05-04T01:13:01.971Z,83.32
2023-05-04T01:14:01.969Z,84.25
2023-05-04T01:15:01.864Z,83.94
2023-05-04T01:16:02.411Z,83.84
2023-05-04T01:17:02.637Z,83.73
2023-05-04T01:18:03.001Z,83.90
2023-05-04T01:19:02.531Z,83.28
2023-05-04T01:20:02.725Z,84.11
2023-05-04T01:21:02.365Z,83.90
2023-05-04T01:22:02.687Z,83.59
2023-05-04T01:23:02.667Z,84.00
2023-05-04T01:24:02.875Z,84.25
2023-05-04T01:25:02.683Z,84.05
2023-05-04T01:26:02.672Z,84.56
2023-05-04T01:27:01.999Z,84.25
2023-05-04T01:28:02.017Z,84.05
2023-05-04T01:29:01.878Z,84.66
2023-05-04T01:30:02.596Z,83.94
2023-05-04T01:31:02.457Z,83.94
2023-05-04T01:32:02.870Z,83.84
2023-05-04T01:33:02.816Z,83.73
2023-05-04T01:34:02.606Z,84.05
2023-05-04T01:35:02.596Z,83.98
2023-05-04T01:36:02.511Z,84.59
2023-05-04T01:37:02.101Z,84.39
2023-05-04T01:38:01.906Z,84.80
2023-05-04T01:39:01.758Z,85.01
2023-05-04T01:40:01.839Z,84.70
2023-05-04T01:41:01.875Z,85.11
2023-05-04T01:42:01.919Z,85.11
2023-05-04T01:43:01.926Z,85.63
2023-05-04T01:44:02.484Z,85.46
2023-05-04T01:45:02.070Z,86.18
2023-05-04T01:46:02.048Z,85.63
2023-05-04T01:47:02.392Z,84.91
2023-05-04T01:48:02.428Z,84.39
2023-05-04T01:49:02.333Z,83.67
2023-05-04T01:50:02.427Z,83.56
2023-05-04T01:51:02.664Z,84.53
2023-05-04T01:52:02.383Z,84.43
2023-05-04T01:53:01.967Z,84.74
2023-05-04T01:54:02.169Z,85.67
2023-05-04T01:55:02.048Z,85.25
2023-05-04T01:56:01.947Z,84.94
2023-05-04T01:57:02.538Z,85.57
2023-05-04T01:58:02.155Z,85.25
2023-05-04T01:59:02.599Z,85.15
2023-05-04T02:00:02.785Z,85.46
2023-05-04T02:01:02.121Z,85.77
2023-05-04T02:02:02.653Z,85.57
2023-05-04T02:03:02.592Z,85.15
2023-05-04T02:04:02.780Z,85.36
2023-05-04T02:05:02.226Z,85.36
2023-05-04T02:06:02.188Z,85.57
2023-05-04T02:07:02.784Z,85.57
2023-05-04T02:08:02.293Z,86.32
2023-05-04T02:09:02.853Z,86.63
2023-05-04T02:10:02.720Z,86.22
2023-05-04T02:11:02.862Z,85.91
2023-05-04T02:12:02.570Z,85.91
2023-05-04T02:13:03.181Z,86.12
2023-05-04T02:14:02.899Z,86.53
2023-05-04T02:15:02.918Z,85.91
2023-05-04T02:16:02.784Z,86.12
2023-05-04T02:17:02.349Z,86.74
2023-05-04T02:18:02.298Z,87.71
2023-05-04T02:19:02.167Z,88.53
2023-05-04T02:20:02.531Z,88.53
2023-05-04T02:21:02.372Z,88.43
2023-05-04T02:22:02.062Z,88.43
2023-05-04T02:23:02.606Z,88.89
2023-05-04T02:24:02.286Z,89.19
2023-05-04T02:25:02.059Z,89.40
2023-05-04T02:26:02.468Z,89.40
2023-05-04T02:27:02.985Z,89.40
2023-05-04T02:28:03.045Z,88.89
2023-05-04T02:29:02.759Z,88.57
2023-05-04T02:30:03.283Z,88.89
2023-05-04T02:31:02.699Z,89.09
2023-05-04T02:32:03.215Z,88.02
2023-05-04T02:33:02.826Z,87.71
2023-05-04T02:34:02.763Z,87.29
2023-05-04T02:35:02.796Z,86.05
2023-05-04T02:36:02.633Z,86.36
2023-05-04T02:37:04.124Z,85.50
2023-05-04T02:38:02.777Z,85.09
2023-05-04T02:39:02.578Z,85.50
2023-05-04T02:40:02.767Z,85.81
2023-05-04T02:41:02.797Z,85.71
2023-05-04T02:42:01.830Z,85.81
2023-05-04T02:43:01.710Z,85.71
2023-05-04T02:44:01.790Z,86.32
2023-05-04T02:45:02.265Z,86.43
2023-05-04T02:46:01.859Z,85.71
2023-05-04T02:47:02.797Z,84.78
2023-05-04T02:48:02.851Z,85.60
2023-05-04T02:49:02.805Z,86.84
2023-05-04T02:50:02.739Z,85.39
2023-05-04T02:51:02.678Z,85.71
2023-05-04T02:52:02.839Z,86.36
2023-05-04T02:53:03.165Z,87.29
2023-05-04T02:54:02.986Z,87.40
2023-05-04T02:55:03.163Z,88.06
2023-05-04T02:56:02.756Z,88.57
2023-05-04T02:57:02.966Z,88.68
2023-05-04T02:58:02.567Z,88.37
2023-05-04T02:59:03.233Z,88.06
2023-05-04T03:00:03.000Z,87.74
2023-05-04T03:01:02.814Z,88.26
2023-05-04T03:02:02.665Z,88.53
2023-05-04T03:03:03.285Z,88.53
2023-05-04T03:04:03.134Z,88.22
2023-05-04T03:05:02.925Z,87.40
2023-05-04T03:06:02.767Z,86.68
2023-05-04T03:07:02.738Z,87.60
2023-05-04T03:08:02.404Z,87.19
2023-05-04T03:09:02.292Z,87.81
2023-05-04T03:10:02.845Z,87.81
2023-05-04T03:11:02.660Z,87.60
2023-05-04T03:12:03.006Z,87.60
2023-05-04T03:13:02.866Z,87.92
2023-05-04T03:14:02.874Z,88.12
2023-05-04T03:15:02.793Z,87.92
2023-05-04T03:16:02.793Z,87.81
2023-05-04T03:17:02.097Z,88.02
2023-05-04T03:18:02.562Z,88.16
2023-05-04T03:19:02.099Z,87.95
2023-05-04T03:20:02.720Z,88.16
2023-05-04T03:21:02.374Z,87.44
2023-05-04T03:22:02.185Z,88.26
2023-05-04T03:23:02.357Z,88.37
2023-05-04T03:24:02.135Z,87.54
2023-05-04T03:25:02.450Z,88.37
2023-05-04T03:26:02.192Z,88.71
2023-05-04T03:27:02.801Z,89.03
2023-05-04T03:28:03.286Z,88.92
2023-05-04T03:29:03.225Z,88.92
2023-05-04T03:30:03.094Z,89.23
2023-05-04T03:31:03.131Z,89.75
2023-05-04T03:32:02.044Z,89.86
2023-05-04T03:33:02.354Z,89.40
2023-05-04T03:34:02.228Z,88.78
2023-05-04T03:35:03.957Z,89.19
2023-05-04T03:36:01.875Z,88.37
2023-05-04T03:37:02.241Z,88.89
2023-05-04T03:38:02.441Z,88.57
2023-05-04T03:39:02.779Z,88.37
2023-05-04T03:40:02.321Z,88.78
2023-05-04T03:41:02.692Z,89.09
2023-05-04T03:42:02.397Z,88.98
2023-05-04T03:43:02.901Z,88.37
2023-05-04T03:44:02.749Z,88.37
2023-05-04T03:45:04.057Z,88.06
2023-05-04T03:46:02.332Z,88.47
2023-05-04T03:47:02.120Z,88.57
2023-05-04T03:48:02.255Z,88.78
2023-05-04T03:49:02.256Z,88.78
2023-05-04T03:50:02.487Z,87.74
2023-05-04T03:51:02.284Z,87.95
2023-05-04T03:52:02.370Z,87.85
2023-05-04T03:53:02.270Z,87.81
2023-05-04T03:54:02.315Z,88.22
2023-05-04T03:55:02.596Z,88.53
2023-05-04T03:56:02.551Z,88.12
2023-05-04T03:57:02.412Z,87.92
2023-05-04T03:58:02.215Z,88.12
2023-05-04T03:59:02.811Z,88.02
2023-05-04T04:00:02.567Z,88.32
2023-05-04T04:01:02.446Z,87.92
2023-05-04T04:02:03.122Z,87.40
2023-05-04T04:03:03.412Z,87.08
2023-05-04T04:04:03.282Z,86.88
2023-05-04T04:05:02.984Z,87.40
2023-05-04T04:06:02.786Z,86.78
2023-05-04T04:07:02.438Z,86.98
2023-05-04T04:08:02.475Z,86.78
2023-05-04T04:09:02.640Z,87.50
2023-05-04T04:10:03.089Z,87.50
2023-05-04T04:11:02.762Z,87.40
2023-05-04T04:12:02.978Z,87.40
2023-05-04T04:13:02.905Z,86.98
2023-05-04T04:14:02.661Z,87.50
2023-05-04T04:15:02.572Z,87.71
2023-05-04T04:16:03.184Z,87.29
2023-05-04T04:17:03.117Z,88.32
2023-05-04T04:18:03.222Z,88.43
2023-05-04T04:19:03.022Z,88.02
2023-05-04T04:20:03.075Z,87.81
2023-05-04T04:21:02.932Z,87.92
2023-05-04T04:22:02.609Z,87.71
2023-05-04T04:23:02.237Z,88.22
2023-05-04T04:24:02.509Z,88.64
2023-05-04T04:25:02.348Z,88.43
2023-05-04T04:26:02.238Z,88.12
2023-05-04T04:27:02.933Z,88.12
2023-05-04T04:28:03.171Z,87.60
2023-05-04T04:29:02.979Z,87.60
2023-05-04T04:30:03.042Z,87.50
2023-05-04T04:31:03.021Z,87.81
2023-05-04T04:32:02.627Z,87.15
2023-05-04T04:33:03.028Z,87.35
2023-05-04T04:34:02.910Z,87.35
2023-05-04T04:35:02.865Z,86.74
2023-05-04T04:36:03.127Z,86.43
2023-05-04T04:37:02.690Z,87.05
2023-05-04T04:38:03.953Z,87.35
2023-05-04T04:39:02.791Z,87.35
2023-05-04T04:40:02.737Z,86.80
2023-05-04T04:41:02.603Z,86.70
2023-05-04T04:42:02.722Z,86.39
2023-05-04T04:43:02.561Z,86.60
2023-05-04T04:44:02.505Z,86.49
2023-05-04T04:45:02.239Z,86.70
2023-05-04T04:46:02.369Z,86.39
2023-05-04T04:47:03.120Z,86.90
2023-05-04T04:48:03.229Z,86.70
2023-05-04T04:49:03.024Z,86.35
2023-05-04T04:50:03.173Z,86.70
2023-05-04T04:51:02.561Z,86.90
2023-05-04T04:52:02.969Z,86.80
2023-05-04T04:53:03.044Z,87.01
2023-05-04T04:54:03.044Z,86.55
2023-05-04T04:55:02.998Z,86.87
2023-05-04T04:56:03.078Z,86.87
2023-05-04T04:57:02.638Z,87.17
2023-05-04T04:58:02.696Z,87.27
2023-05-04T04:59:02.321Z,87.59
2023-05-04T05:00:02.824Z,86.55
2023-05-04T05:01:02.938Z,86.55
2023-05-04T05:02:02.751Z,87.27
2023-05-04T05:03:03.021Z,87.27
2023-05-04T05:04:03.125Z,86.97
2023-05-04T05:05:03.227Z,86.45
2023-05-04T05:06:02.908Z,85.89
2023-05-04T05:07:03.521Z,86.21
2023-05-04T05:08:03.071Z,86.41
2023-05-04T05:09:03.151Z,85.69
2023-05-04T05:10:03.599Z,86.00
2023-05-04T05:11:03.554Z,85.75
2023-05-04T05:12:02.933Z,85.55
2023-05-04T05:13:02.993Z,85.65
2023-05-04T05:14:03.037Z,86.06
2023-05-04T05:15:03.122Z,85.75
2023-05-04T05:16:02.707Z,85.75
2023-05-04T05:17:03.242Z,86.16
2023-05-04T05:18:03.208Z,86.47
2023-05-04T05:19:02.924Z,86.27
2023-05-04T05:20:02.927Z,86.68
2023-05-04T05:21:03.330Z,86.99
2023-05-04T05:22:03.464Z,86.68
2023-05-04T05:23:03.460Z,86.68
2023-05-04T05:24:02.939Z,86.16
2023-05-04T05:25:03.210Z,85.30
2023-05-04T05:26:03.555Z,84.89
2023-05-04T05:27:02.510Z,84.89
2023-05-04T05:28:02.556Z,84.99
2023-05-04T05:29:02.760Z,84.64
2023-05-04T05:30:02.941Z,84.44
2023-05-04T05:31:03.056Z,84.95
2023-05-04T05:32:02.631Z,84.85
2023-05-04T05:33:03.000Z,84.09
2023-05-04T05:34:03.055Z,84.85
2023-05-04T05:35:02.980Z,85.06
2023-05-04T05:36:02.918Z,85.02
2023-05-04T05:37:03.041Z,85.12
2023-05-04T05:38:03.114Z,84.81
2023-05-04T05:39:03.141Z,84.67
2023-05-04T05:40:03.315Z,84.56
2023-05-04T05:41:03.442Z,84.53
2023-05-04T05:42:02.555Z,84.32
2023-05-04T05:43:02.752Z,83.91
2023-05-04T05:44:02.815Z,84.18
2023-05-04T05:45:03.141Z,84.08
2023-05-04T05:46:02.880Z,83.83
2023-05-04T05:47:03.023Z,83.32
2023-05-04T05:48:03.317Z,83.22
2023-05-04T05:49:03.286Z,83.22
2023-05-04T05:50:03.829Z,83.07
2023-05-04T05:51:03.462Z,83.18
2023-05-04T05:52:03.067Z,83.07
2023-05-04T05:53:02.437Z,82.87
2023-05-04T05:54:02.530Z,82.73
2023-05-04T05:55:02.890Z,82.53
2023-05-04T05:56:02.865Z,82.08
2023-05-04T05:57:03.041Z,81.05
2023-05-04T05:58:02.881Z,80.91
2023-05-04T05:59:03.056Z,80.46
2023-05-04T06:00:03.622Z,79.75
2023-05-04T06:01:03.435Z,79.71
2023-05-04T06:02:02.117Z,79.78
2023-05-04T06:03:02.095Z,78.86
2023-05-04T06:04:02.059Z,77.90
2023-05-04T06:05:02.558Z,77.25
2023-05-04T06:06:02.010Z,77.35
2023-05-04T06:07:02.698Z,76.09
2023-05-04T06:08:02.719Z,76.46
2023-05-04T06:09:02.816Z,76.06
2023-05-04T06:10:03.201Z,75.82
2023-05-04T06:11:02.706Z,75.51
2023-05-04T06:12:01.976Z,74.25
2023-05-04T06:13:02.270Z,74.76
2023-05-04T06:14:02.270Z,74.01
2023-05-04T06:15:01.956Z,72.65
2023-05-04T06:16:01.976Z,71.43
2023-05-04T06:17:02.457Z,71.91
2023-05-04T06:18:02.749Z,72.31
2023-05-04T06:19:02.996Z,71.87
2023-05-04T06:20:02.798Z,70.75
2023-05-04T06:21:02.496Z,70.01
2023-05-04T06:22:01.692Z,70.72
2023-05-04T06:23:01.747Z,70.72
2023-05-04T06:24:02.144Z,70.31
2023-05-04T06:25:05.929Z,68.27
2023-05-04T06:26:01.815Z,68.48
2023-05-04T06:27:01.928Z,69.36
2023-05-04T06:28:02.012Z,69.67
2023-05-04T06:29:02.000Z,68.75
2023-05-04T06:30:02.104Z,68.65
2023-05-04T06:31:02.255Z,69.02
2023-05-04T06:32:02.901Z,67.80
2023-05-04T06:33:02.861Z,67.19
2023-05-04T06:34:02.264Z,67.30
2023-05-04T06:35:02.328Z,66.49
2023-05-04T06:36:02.688Z,66.69
2023-05-04T06:37:02.848Z,66.99
2023-05-04T06:38:02.743Z,67.10
2023-05-04T06:39:02.406Z,66.69
2023-05-04T06:40:02.679Z,66.89
2023-05-04T06:41:02.852Z,67.19
2023-05-04T06:42:02.716Z,67.19
2023-05-04T06:43:03.001Z,67.10
2023-05-04T06:44:02.596Z,67.50
2023-05-04T06:45:02.587Z,67.10
2023-05-04T14:14:23.432Z,36.61
2023-05-04T14:15:23.590Z,36.21
2023-05-04T14:16:23.045Z,37.00
2023-05-04T14:17:22.969Z,34.71
2023-05-04T14:18:23.091Z,35.82
2023-05-04T14:19:23.348Z,35.72
2023-05-04T14:20:23.328Z,36.41
2023-05-04T14:21:23.685Z,35.91
2023-05-04T14:22:23.882Z,35.00
2023-05-04T14:23:23.946Z,35.40
2023-05-04T14:24:24.126Z,35.11
2023-05-04T14:25:24.085Z,34.71
2023-05-04T14:26:23.075Z,35.91
2023-05-04T14:27:23.240Z,35.12
2023-05-04T14:29:27.904Z,36.39
2023-05-04T14:30:27.894Z,36.79
2023-05-04T14:31:28.003Z,36.98
2023-05-04T14:32:27.827Z,36.77
2023-05-04T14:33:28.012Z,36.39
2023-05-04T14:33:32.980Z,36.39
2023-05-04T14:34:02.554Z,36.79
2023-05-04T14:35:02.641Z,35.88
2023-05-04T14:36:02.179Z,35.68
2023-05-04T14:37:02.455Z,34.20
2023-05-04T14:38:02.246Z,34.69
2023-05-04T14:39:03.204Z,34.79
2023-05-04T14:40:03.200Z,35.09
2023-05-04T14:41:03.161Z,33.98
2023-05-04T14:42:02.691Z,33.98
2023-05-04T14:43:02.935Z,34.48
2023-05-04T14:44:02.919Z,33.01
2023-05-04T14:53:02.951Z,32.81
2023-05-04T14:59:03.028Z,35.58
2023-05-04T15:00:02.955Z,36.69
2023-05-04T15:01:02.499Z,36.79
2023-05-04T15:02:02.697Z,37.08
2023-05-04T15:03:02.998Z,36.98
2023-05-04T15:04:01.942Z,37.49
2023-05-04T15:05:02.260Z,37.30
2023-05-04T15:06:02.532Z,37.89
2023-05-04T15:07:02.260Z,38.21
2023-05-04T15:08:02.003Z,39.08
2023-05-04T15:09:02.120Z,38.29
2023-05-04T15:10:02.254Z,38.39
2023-05-04T15:11:02.614Z,37.70
2023-05-04T15:12:02.200Z,37.70
2023-05-04T15:13:02.393Z,38.11
2023-05-04T15:14:02.622Z,38.68
2023-05-04T15:15:02.709Z,38.29
2023-05-04T15:16:02.635Z,37.79
2023-05-04T15:17:03.249Z,39.10
2023-05-04T15:18:03.148Z,38.88
2023-05-04T15:19:02.132Z,39.56
2023-05-04T15:20:02.224Z,39.16
2023-05-04T15:21:02.296Z,38.76
2023-05-04T15:22:02.557Z,38.55
2023-05-04T15:23:02.134Z,38.57
2023-05-04T15:24:02.847Z,39.06
2023-05-04T15:25:02.989Z,38.57
2023-05-04T15:26:03.225Z,37.58
2023-05-04T15:27:03.113Z,39.16
2023-05-04T15:28:02.891Z,37.87
2023-05-04T15:29:02.375Z,37.58
2023-05-04T15:30:02.638Z,38.49
2023-05-04T15:31:02.699Z,38.39
2023-05-04T15:32:02.894Z,38.90
2023-05-04T15:33:02.394Z,39.20
2023-05-04T15:34:03.164Z,39.87
2023-05-04T15:35:05.702Z,40.76
2023-05-04T15:36:03.127Z,39.87
2023-05-04T15:37:03.097Z,40.17
2023-05-04T15:38:02.599Z,40.26
2023-05-04T15:39:02.870Z,40.07
2023-05-04T15:40:03.118Z,39.06
2023-05-04T15:41:03.342Z,38.67
2023-05-04T15:42:03.080Z,39.26
2023-05-04T15:43:02.786Z,39.75
2023-05-04T15:44:03.217Z,39.95
2023-05-04T15:45:03.319Z,37.98
2023-05-04T15:46:03.046Z,38.17
2023-05-04T15:47:03.440Z,38.86
2023-05-04T15:48:03.508Z,39.16
2023-05-04T15:49:02.566Z,39.06
2023-05-04T15:50:02.518Z,39.14
2023-05-04T15:51:02.464Z,39.04
2023-05-04T15:52:02.444Z,39.64
2023-05-04T15:53:02.484Z,39.24
2023-05-04T15:54:02.608Z,39.43
2023-05-04T15:55:16.464Z,38.17
2023-05-04T15:56:05.011Z,38.49
2023-05-04T15:57:02.765Z,39.28
2023-05-04T15:58:02.747Z,39.97
2023-05-04T15:59:03.012Z,39.87
2023-05-04T16:00:03.056Z,40.05
2023-05-04T16:01:03.396Z,39.65
2023-05-04T16:02:03.321Z,39.08
2023-05-04T16:03:02.881Z,39.28
2023-05-04T16:04:03.460Z,38.78
2023-05-04T16:05:03.313Z,38.70
2023-05-04T16:06:02.910Z,39.20
2023-05-04T16:07:03.079Z,39.10
2023-05-04T16:08:03.055Z,39.20
2023-05-04T16:09:02.357Z,38.90
2023-05-04T16:10:02.523Z,38.88
2023-05-04T16:11:02.641Z,38.70
2023-05-04T16:12:02.720Z,38.70
2023-05-04T16:13:02.371Z,38.90
2023-05-04T16:14:02.559Z,39.40
2023-05-04T16:15:02.983Z,39.08
2023-05-04T16:16:02.619Z,39.10
2023-05-04T16:17:02.916Z,39.87
2023-05-04T16:18:02.977Z,39.48
2023-05-04T16:19:02.954Z,39.18
2023-05-04T16:20:03.046Z,38.59
2023-05-04T16:21:03.288Z,39.18
2023-05-04T16:22:03.094Z,38.39
2023-05-04T16:23:02.901Z,38.39
2023-05-04T16:24:03.032Z,38.49
2023-05-04T16:25:03.139Z,39.18
2023-05-04T16:26:03.372Z,39.58
2023-05-04T16:27:03.440Z,38.98
2023-05-04T16:28:03.353Z,38.78
2023-05-04T16:29:02.518Z,38.19
2023-05-04T16:30:02.671Z,38.29
2023-05-04T16:31:02.483Z,38.51
2023-05-04T16:32:02.613Z,39.59
2023-05-04T16:33:02.633Z,39.69
2023-05-04T16:34:03.159Z,40.09
2023-05-04T16:35:03.375Z,39.20
2023-05-04T16:36:02.868Z,39.71
2023-05-04T16:37:02.988Z,39.71
2023-05-04T16:38:03.124Z,40.41
2023-05-04T16:39:03.362Z,39.71
2023-05-04T16:40:03.545Z,39.73
2023-05-04T16:41:03.376Z,40.23
2023-05-04T16:42:03.390Z,39.63
2023-05-04T16:43:03.516Z,40.12
2023-05-04T16:44:02.676Z,40.33
2023-05-04T16:45:02.733Z,40.23
2023-05-04T16:46:02.939Z,40.63
2023-05-04T16:47:03.055Z,40.33
2023-05-04T16:48:03.016Z,40.84
2023-05-04T16:49:03.020Z,40.84
2023-05-04T16:50:03.407Z,40.84
2023-05-04T16:51:02.924Z,41.36
2023-05-04T16:52:03.074Z,41.46
2023-05-04T16:53:03.280Z,40.66
2023-05-04T16:54:03.317Z,40.98
2023-05-04T16:55:03.030Z,40.19
2023-05-04T16:56:02.986Z,41.08
2023-05-04T16:57:03.024Z,41.39
2023-05-04T16:58:03.141Z,42.17
2023-05-04T16:59:02.992Z,41.38
2023-05-04T17:00:02.808Z,41.28
2023-05-04T17:01:03.039Z,39.81
2023-05-04T17:02:03.031Z,39.90
2023-05-04T17:03:03.419Z,39.61
2023-05-04T17:04:02.556Z,40.01
2023-05-04T17:05:02.369Z,39.41
2023-05-04T17:06:02.622Z,40.01
2023-05-04T17:07:02.455Z,39.90
2023-05-04T17:08:02.687Z,39.49
2023-05-04T17:09:02.442Z,39.89
2023-05-04T17:10:02.700Z,39.01
2023-05-04T17:11:02.375Z,38.43
2023-05-04T17:12:02.593Z,39.13
2023-05-04T17:13:02.824Z,39.53
2023-05-04T17:14:02.866Z,39.33
2023-05-04T17:15:02.547Z,39.13
2023-05-04T17:16:02.627Z,39.45
2023-05-04T17:17:02.693Z,39.75
2023-05-04T17:18:03.010Z,39.75
2023-05-04T17:19:02.926Z,39.65
2023-05-04T17:20:02.566Z,40.36
2023-05-04T17:21:02.764Z,39.86
2023-05-04T17:22:02.844Z,40.06
2023-05-04T17:23:03.077Z,39.67
2023-05-04T17:24:02.715Z,39.67
2023-05-04T17:25:02.744Z,39.17
2023-05-04T17:26:02.340Z,39.37
2023-05-04T17:27:02.594Z,39.47
2023-05-04T17:28:02.430Z,39.69
2023-05-04T17:29:02.426Z,39.69
2023-05-04T17:30:02.365Z,40.08
2023-05-04T17:31:01.919Z,39.78
2023-05-04T17:32:02.177Z,40.38
2023-05-04T17:33:02.505Z,40.18
2023-05-04T17:34:02.481Z,39.78
2023-05-04T17:35:20.445Z,39.50
2023-05-04T17:36:01.940Z,40.00
2023-05-04T17:37:02.086Z,40.78
2023-05-04T17:38:02.081Z,40.58
2023-05-04T17:39:02.189Z,40.78
2023-05-04T17:40:02.452Z,40.88
2023-05-04T17:41:02.761Z,41.17
2023-05-04T17:42:02.709Z,41.46
2023-05-04T17:43:02.623Z,41.75
2023-05-04T17:44:02.778Z,41.46
2023-05-04T17:45:02.257Z,41.85
2023-05-04T17:46:02.966Z,41.85
2023-05-04T17:47:02.907Z,41.55
2023-05-04T17:48:02.841Z,41.75
2023-05-04T17:49:02.985Z,42.45
2023-05-04T17:50:02.469Z,42.55
2023-05-04T17:51:02.462Z,43.24
2023-05-04T17:52:02.578Z,43.44
2023-05-04T17:53:02.628Z,43.86
2023-05-04T17:54:03.342Z,44.26
2023-05-04T17:55:03.386Z,44.56
2023-05-04T17:56:03.271Z,44.66
2023-05-04T17:57:03.170Z,44.56
2023-05-04T17:58:03.344Z,44.58
2023-05-04T17:59:02.957Z,45.28
2023-05-04T18:00:02.654Z,44.58
2023-05-04T18:01:02.817Z,44.78
2023-05-04T18:02:03.134Z,44.98
2023-05-04T18:03:02.942Z,44.88
2023-05-04T18:04:02.620Z,44.98
2023-05-04T18:05:02.488Z,44.98
2023-05-04T18:06:02.146Z,45.18
2023-05-04T18:07:02.406Z,44.88
2023-05-04T18:08:02.581Z,44.98
2023-05-04T18:09:01.561Z,44.98
2023-05-04T18:10:01.743Z,45.18
2023-05-04T18:11:01.782Z,45.50
2023-05-04T18:12:01.707Z,45.79
2023-05-04T18:13:01.904Z,45.70
2023-05-04T18:14:02.731Z,45.60
2023-05-04T18:15:02.166Z,46.09
2023-05-04T18:16:02.470Z,46.09
2023-05-04T18:17:02.159Z,46.30
2023-05-04T18:18:02.317Z,46.09
2023-05-04T18:19:02.534Z,45.79
2023-05-04T18:20:02.881Z,46.22
2023-05-04T18:21:03.081Z,46.72
2023-05-04T18:22:02.846Z,46.59
2023-05-04T18:23:02.984Z,47.21
2023-05-04T18:24:02.540Z,46.91
2023-05-04T18:25:02.842Z,47.31
2023-05-04T18:26:03.076Z,47.74
2023-05-04T18:27:02.735Z,48.03
2023-05-04T18:28:02.832Z,48.43
2023-05-04T18:29:17.415Z,48.46
2023-05-04T18:30:02.067Z,48.55
2023-05-04T18:31:02.069Z,48.65
2023-05-04T18:32:02.267Z,49.25
2023-05-04T18:33:02.305Z,49.45
2023-05-04T18:34:02.533Z,49.77
2023-05-04T18:35:02.969Z,49.98
2023-05-04T18:36:02.763Z,50.17
2023-05-04T18:37:02.885Z,50.47
2023-05-04T18:38:02.858Z,50.17
2023-05-04T18:39:02.587Z,51.10
2023-05-04T18:40:02.711Z,51.40
2023-05-04T18:41:02.717Z,52.02
2023-05-04T18:42:02.687Z,52.22
2023-05-04T18:43:02.556Z,52.62
2023-05-04T18:44:02.720Z,53.12
2023-05-04T18:45:03.099Z,53.64
2023-05-04T18:46:03.434Z,54.14
2023-05-04T18:47:03.324Z,54.24
2023-05-04T18:48:03.148Z,54.54
2023-05-04T18:49:02.594Z,54.84
2023-05-04T18:50:02.902Z,55.36
2023-05-04T18:51:02.665Z,55.57
2023-05-04T18:52:02.501Z,55.87
2023-05-04T18:53:02.595Z,56.07
2023-05-04T18:54:02.672Z,56.20
2023-05-04T18:55:02.853Z,56.09
2023-05-04T18:56:02.933Z,56.70
2023-05-04T18:57:03.142Z,56.99
2023-05-04T18:58:03.068Z,57.02
2023-05-04T18:59:02.210Z,56.92
2023-05-04T19:00:02.801Z,56.92
2023-05-04T19:01:02.775Z,57.22
2023-05-04T19:02:02.157Z,57.12
2023-05-04T19:03:02.281Z,56.82
2023-05-04T19:04:02.509Z,56.92
2023-05-04T19:05:02.655Z,57.12
2023-05-04T19:06:02.572Z,57.42
2023-05-04T19:07:02.812Z,57.75
2023-05-04T19:08:02.575Z,58.15
2023-05-04T19:09:01.976Z,58.55
2023-05-04T19:10:02.056Z,58.95
2023-05-04T19:11:02.282Z,59.48
2023-05-04T19:12:02.002Z,59.68
2023-05-04T19:13:02.194Z,59.78
2023-05-04T19:14:02.532Z,60.01
2023-05-04T19:15:02.505Z,60.21
2023-05-04T19:16:02.644Z,60.01
2023-05-04T19:17:02.926Z,59.70
2023-05-04T19:18:02.653Z,59.18
2023-05-04T19:19:02.695Z,59.28
2023-05-04T19:20:02.835Z,58.78
2023-05-04T19:21:02.782Z,58.37
2023-05-04T19:22:02.833Z,58.68
2023-05-04T19:23:03.056Z,58.28
2023-05-04T19:24:02.156Z,58.48
2023-05-04T19:25:02.196Z,58.91
2023-05-04T19:26:02.273Z,59.31
2023-05-04T19:27:02.420Z,59.94
2023-05-04T19:28:02.448Z,59.74
2023-05-04T19:29:02.230Z,59.74
2023-05-04T19:30:02.268Z,59.74
2023-05-04T19:31:02.317Z,58.94
2023-05-04T19:32:12.120Z,59.03
2023-05-04T19:33:02.480Z,60.03
2023-05-04T19:34:02.452Z,60.03
2023-05-04T19:35:02.615Z,60.47
2023-05-04T19:36:02.600Z,60.57
2023-05-04T19:37:02.566Z,61.07
2023-05-04T19:38:02.282Z,60.86
2023-05-04T19:39:02.276Z,60.89
2023-05-04T19:40:02.239Z,60.60
2023-05-04T19:41:02.530Z,60.60
2023-05-04T19:42:02.192Z,60.60
2023-05-04T19:43:02.296Z,60.39
2023-05-04T19:44:02.534Z,60.80
2023-05-04T19:45:02.346Z,60.10
2023-05-04T19:46:02.317Z,61.19
2023-05-04T19:47:02.922Z,60.49
2023-05-04T19:48:02.812Z,60.39
2023-05-04T19:49:02.665Z,60.69
2023-05-04T19:50:02.556Z,59.79
2023-05-04T19:51:02.839Z,60.10
2023-05-04T19:52:02.443Z,60.10
2023-05-04T19:53:02.476Z,60.49
2023-05-04T19:54:02.171Z,60.62
2023-05-04T19:55:02.188Z,61.33
2023-05-04T19:56:02.115Z,60.93
2023-05-04T19:57:02.124Z,61.66
2023-05-04T19:58:02.042Z,61.22
2023-05-04T19:59:02.438Z,61.25
2023-05-04T20:00:02.571Z,61.35
2023-05-04T20:01:02.625Z,61.46
2023-05-04T20:02:02.556Z,60.85
2023-05-04T20:03:02.414Z,62.16
2023-05-04T20:04:02.597Z,62.26
2023-05-04T20:05:02.409Z,61.55
2023-05-04T20:06:02.201Z,61.76
2023-05-04T20:07:02.287Z,61.38
2023-05-04T20:08:04.960Z,62.49
2023-05-04T20:09:03.036Z,62.29
2023-05-04T20:10:02.883Z,61.88
2023-05-04T20:11:03.075Z,62.29
2023-05-04T20:12:02.994Z,62.39
2023-05-04T20:13:03.123Z,62.49
2023-05-04T20:14:02.811Z,62.42
2023-05-04T20:15:02.929Z,62.12
2023-05-04T20:16:03.009Z,62.32
2023-05-04T20:17:03.037Z,61.91
2023-05-04T20:18:02.842Z,62.92
2023-05-04T20:19:03.995Z,63.05
2023-05-04T20:20:02.819Z,64.13
2023-05-04T20:21:02.693Z,63.93
2023-05-04T20:22:02.738Z,62.62
2023-05-04T20:23:02.784Z,63.65
2023-05-04T20:24:02.538Z,62.95
2023-05-04T20:25:02.597Z,64.16
2023-05-04T20:26:04.638Z,64.06
2023-05-04T20:27:02.295Z,64.06
2023-05-04T20:28:02.186Z,64.36
2023-05-04T20:29:02.993Z,64.39
2023-05-04T20:30:02.942Z,64.19
2023-05-04T20:31:02.956Z,64.39
2023-05-04T20:32:03.050Z,64.59
2023-05-04T20:33:03.086Z,64.29